Time;durP1;ratioP1;P1;durP2;ratioP2;P2;SDS_P1;SDS_P2;PMS_P1;PMS_P2;Temp;Humidity;BMP_temperature;BMP_pressure;BME280_temperature;BME280_humidity;BME280_pressure;Samples;Min_cycle;Max_cycle;Signal;HPM_P1;HPM_P2
2021/12/26 00:02:17;;;;;;;8.70;3.30;;;;;;;;;;5024353;28;20104;-31
2021/12/26 00:04:43;;;;;;;10.18;3.50;;;;;;;;;;5023602;28;20113;-34
2021/12/26 00:07:08;;;;;;;8.93;3.88;;;;;;;;;;5023524;28;20482;-36
2021/12/26 00:09:34;;;;;;;12.80;4.35;;;;;;;;;;5023670;28;20088;-32
2021/12/26 00:11:59;;;;;;;9.27;3.78;;;;;;;;;;5023558;28;20109;-38
2021/12/26 00:14:25;;;;;;;7.60;3.50;;;;;;;;;;5023663;28;20046;-33
2021/12/26 00:16:50;;;;;;;8.48;3.70;;;;;;;;;;5023745;28;20496;-32
2021/12/26 00:19:16;;;;;;;8.07;3.58;;;;;;;;;;5022348;28;20037;-30
2021/12/26 00:21:41;;;;;;;8.40;3.63;;;;;;;;;;5023345;28;20117;-34
2021/12/26 00:24:07;;;;;;;9.25;3.50;;;;;;;;;;5022982;28;20108;-32
2021/12/26 00:26:33;;;;;;;8.35;3.13;;;;;;;;;;5038696;28;20396;-33
2021/12/26 00:29:00;;;;;;;8.20;4.05;;;;;;;;;;5023735;28;20025;-33
2021/12/26 00:31:25;;;;;;;6.63;3.00;;;;;;;;;;5023521;28;20044;-31
2021/12/26 00:33:51;;;;;;;6.13;3.50;;;;;;;;;;5023172;28;20108;-31
2021/12/26 00:36:16;;;;;;;7.93;3.50;;;;;;;;;;5023546;28;20040;-35
2021/12/26 00:38:42;;;;;;;11.00;3.55;;;;;;;;;;5023341;28;20148;-34
2021/12/26 00:41:07;;;;;;;7.35;3.40;;;;;;;;;;5022982;28;20114;-33
2021/12/26 00:43:33;;;;;;;6.25;3.10;;;;;;;;;;5023128;28;20055;-33
2021/12/26 00:46:00;;;;;;;6.15;3.10;;;;;;;;;;5023123;28;20057;-34
2021/12/26 00:48:25;;;;;;;5.55;3.00;;;;;;;;;;5023234;28;20037;-36
2021/12/26 00:50:51;;;;;;;7.57;2.72;;;;;;;;;;5023101;28;20497;-32
2021/12/26 00:53:16;;;;;;;7.85;2.95;;;;;;;;;;5022768;28;20029;-34
2021/12/26 00:55:42;;;;;;;7.43;3.47;;;;;;;;;;5022818;28;20029;-31
2021/12/26 00:58:08;;;;;;;5.95;2.90;;;;;;;;;;5023910;28;20072;-34
2021/12/26 01:00:45;;;;;;;4.95;2.95;;;;;;;;;;5031484;28;20037;-34
2021/12/26 01:03:11;;;;;;;4.85;3.00;;;;;;;;;;5042703;28;20033;-32
2021/12/26 01:05:38;;;;;;;5.28;2.83;;;;;;;;;;5042657;28;20029;-33
2021/12/26 01:08:04;;;;;;;5.65;2.67;;;;;;;;;;5042480;28;20084;-36
2021/12/26 01:10:36;;;;;;;4.97;3.05;;;;;;;;;;5042649;28;20525;-35
2021/12/26 01:13:12;;;;;;;7.20;2.80;;;;;;;;;;5040977;28;20029;-31
2021/12/26 01:15:38;;;;;;;6.63;3.47;;;;;;;;;;5042764;28;20025;-35
2021/12/26 01:18:04;;;;;;;5.65;2.55;;;;;;;;;;5042661;28;20032;-30
2021/12/26 01:21:31;;;;;;;8.43;3.30;;;;;;;;;;5042695;28;20110;-35
2021/12/26 01:23:25;;;;;;;7.20;3.30;;;;;;;;;;5033392;28;20057;-35
2021/12/26 01:25:51;;;;;;;6.60;3.15;;;;;;;;;;5042497;28;20029;-29
2021/12/26 01:28:21;;;;;;;4.60;2.80;;;;;;;;;;5042948;28;20087;-30
2021/12/26 01:30:46;;;;;;;5.57;2.85;;;;;;;;;;5042362;28;20029;-33
2021/12/26 01:33:14;;;;;;;6.18;2.83;;;;;;;;;;5042253;28;20110;-31
2021/12/26 01:35:39;;;;;;;5.93;2.95;;;;;;;;;;5042265;28;20064;-34
2021/12/26 01:38:06;;;;;;;5.32;2.45;;;;;;;;;;5042686;28;20069;-33
2021/12/26 01:40:35;;;;;;;5.32;2.53;;;;;;;;;;5042412;28;20513;-31
2021/12/26 01:43:02;;;;;;;5.15;3.08;;;;;;;;;;5042212;28;20115;-33
2021/12/26 01:45:28;;;;;;;5.38;2.70;;;;;;;;;;5042229;28;20040;-32
2021/12/26 01:48:00;;;;;;;3.72;2.33;;;;;;;;;;5042064;28;20036;-32
2021/12/26 01:50:26;;;;;;;4.60;2.93;;;;;;;;;;5042489;28;20037;-33
2021/12/26 01:52:52;;;;;;;5.10;2.80;;;;;;;;;;5045281;28;20283;-30
2021/12/26 01:55:26;;;;;;;5.55;2.83;;;;;;;;;;5046330;28;20056;-33
2021/12/26 01:57:53;;;;;;;5.15;2.67;;;;;;;;;;5045048;28;20136;-32
2021/12/26 02:00:19;;;;;;;3.92;2.25;;;;;;;;;;5046633;28;20452;-34
2021/12/26 02:02:45;;;;;;;3.30;2.40;;;;;;;;;;5046170;28;20025;-33
2021/12/26 02:05:10;;;;;;;4.85;2.55;;;;;;;;;;5044914;28;20032;-31
2021/12/26 02:07:36;;;;;;;3.92;2.28;;;;;;;;;;5046012;28;20045;-32
2021/12/26 02:10:01;;;;;;;5.30;2.30;;;;;;;;;;5045582;28;20111;-37
2021/12/26 02:12:27;;;;;;;3.35;2.10;;;;;;;;;;5046055;28;20628;-36
2021/12/26 02:14:53;;;;;;;4.60;2.15;;;;;;;;;;5045860;28;20406;-34
2021/12/26 02:17:19;;;;;;;4.45;2.33;;;;;;;;;;5045674;28;20033;-28
2021/12/26 02:19:45;;;;;;;6.75;2.60;;;;;;;;;;5044839;28;20032;-34
2021/12/26 02:22:15;;;;;;;3.78;2.40;;;;;;;;;;5045689;28;20431;-33
2021/12/26 02:27:36;;;;;;;4.22;2.35;;;;;;;;;;5045856;28;20036;-32
2021/12/26 02:30:07;;;;;;;4.38;2.17;;;;;;;;;;5045157;28;20063;-32
2021/12/26 02:32:33;;;;;;;4.10;2.15;;;;;;;;;;5044028;28;20040;-31
2021/12/26 02:34:59;;;;;;;3.67;2.45;;;;;;;;;;5045481;28;20486;-32
2021/12/26 02:37:25;;;;;;;3.42;2.45;;;;;;;;;;5045438;28;20029;-31
2021/12/26 02:39:51;;;;;;;3.53;2.15;;;;;;;;;;5045687;28;20154;-36
2021/12/26 02:42:20;;;;;;;3.30;2.22;;;;;;;;;;5045029;28;20025;-33
2021/12/26 02:44:46;;;;;;;3.78;2.42;;;;;;;;;;5045160;28;20491;-34
2021/12/26 02:47:12;;;;;;;2.83;2.28;;;;;;;;;;5040028;28;20029;-34
2021/12/26 02:49:38;;;;;;;4.75;2.53;;;;;;;;;;5038642;28;20028;-32
2021/12/26 02:52:03;;;;;;;6.40;2.40;;;;;;;;;;5040856;28;20033;-33
2021/12/26 02:54:29;;;;;;;3.40;2.50;;;;;;;;;;5042411;28;20037;-32
2021/12/26 02:56:55;;;;;;;4.25;2.30;;;;;;;;;;5037393;28;20025;-28
2021/12/26 02:59:20;;;;;;;5.70;2.40;;;;;;;;;;5024126;28;20108;-30
2021/12/26 03:01:46;;;;;;;7.22;4.85;;;;;;;;;;5044111;28;20059;-34
2021/12/26 03:04:11;;;;;;;21.05;15.35;;;;;;;;;;5045091;28;20062;-32
2021/12/26 03:09:06;;;;;;;62.55;39.30;;;;;;;;;;5044808;28;20041;-29
2021/12/26 03:11:31;;;;;;;56.00;37.47;;;;;;;;;;5043855;28;20063;-32
2021/12/26 03:13:57;;;;;;;59.88;42.40;;;;;;;;;;5044369;28;20033;-33
2021/12/26 03:16:22;;;;;;;81.18;55.45;;;;;;;;;;5044468;28;20029;-32
2021/12/26 03:18:48;;;;;;;177.50;123.95;;;;;;;;;;5042683;28;20039;-35
2021/12/26 03:21:13;;;;;;;134.85;77.50;;;;;;;;;;5042923;28;20032;-35
2021/12/26 03:23:39;;;;;;;88.43;53.15;;;;;;;;;;5042681;28;20029;-35
2021/12/26 03:26:05;;;;;;;62.22;34.58;;;;;;;;;;5043657;28;20778;-30
2021/12/26 03:28:31;;;;;;;90.57;57.13;;;;;;;;;;5044087;28;20025;-35
2021/12/26 03:30:57;;;;;;;91.22;60.58;;;;;;;;;;5041769;28;20475;-35
2021/12/26 03:33:22;;;;;;;88.80;57.58;;;;;;;;;;5023082;28;20072;-32
2021/12/26 03:35:48;;;;;;;88.82;58.40;;;;;;;;;;5022941;28;20590;-31
2021/12/26 03:38:14;;;;;;;96.18;58.88;;;;;;;;;;5022656;28;20590;-34
2021/12/26 03:40:39;;;;;;;85.72;56.22;;;;;;;;;;5022376;28;20056;-31
2021/12/26 03:43:05;;;;;;;82.80;53.85;;;;;;;;;;5023032;28;20033;-36
2021/12/26 03:45:31;;;;;;;84.10;54.95;;;;;;;;;;5023233;28;20419;-32
2021/12/26 03:47:57;;;;;;;80.93;52.38;;;;;;;;;;5021826;28;20025;-31
2021/12/26 03:50:23;;;;;;;78.55;52.05;;;;;;;;;;5023153;28;20026;-31
2021/12/26 03:52:50;;;;;;;71.97;50.80;;;;;;;;;;5022804;28;20036;-32
2021/12/26 03:55:17;;;;;;;79.72;51.20;;;;;;;;;;5023337;28;20040;-30
2021/12/26 03:57:42;;;;;;;78.88;51.03;;;;;;;;;;5021547;28;20080;-30
2021/12/26 04:00:08;;;;;;;75.28;48.55;;;;;;;;;;5022910;28;20042;-36
2021/12/26 04:02:34;;;;;;;67.57;47.28;;;;;;;;;;5038794;28;20060;-36
2021/12/26 04:04:59;;;;;;;69.13;46.60;;;;;;;;;;5024010;28;20120;-28
2021/12/26 04:07:25;;;;;;;67.18;45.08;;;;;;;;;;5023922;28;20049;-32
2021/12/26 04:09:50;;;;;;;66.15;43.03;;;;;;;;;;5023372;28;20057;-37
2021/12/26 04:12:16;;;;;;;61.58;41.67;;;;;;;;;;5038683;28;20033;-32
2021/12/26 04:14:41;;;;;;;61.88;42.88;;;;;;;;;;5022787;28;20029;-35
2021/12/26 04:17:07;;;;;;;62.15;42.38;;;;;;;;;;5023533;28;20112;-32
2021/12/26 04:19:32;;;;;;;61.58;39.05;;;;;;;;;;5023415;28;20040;-34
2021/12/26 04:21:58;;;;;;;56.55;39.50;;;;;;;;;;5022940;28;20033;-34
2021/12/26 04:24:23;;;;;;;55.40;38.05;;;;;;;;;;5023439;28;20044;-34
2021/12/26 04:26:49;;;;;;;52.53;38.75;;;;;;;;;;5023171;28;20029;-33
2021/12/26 04:29:14;;;;;;;51.22;37.33;;;;;;;;;;5005279;28;20061;-31
2021/12/26 04:31:40;;;;;;;51.53;37.95;;;;;;;;;;5022866;28;20044;-36
2021/12/26 04:34:05;;;;;;;47.63;35.28;;;;;;;;;;5023178;28;20218;-36
2021/12/26 04:36:31;;;;;;;51.55;34.90;;;;;;;;;;5023514;28;20029;-30
2021/12/26 04:38:57;;;;;;;50.38;34.90;;;;;;;;;;5022898;28;20687;-32
2021/12/26 04:41:22;;;;;;;53.80;34.88;;;;;;;;;;5023117;28;20033;-31
2021/12/26 04:43:48;;;;;;;50.13;32.45;;;;;;;;;;5022985;28;20626;-35
2021/12/26 04:46:14;;;;;;;45.00;32.40;;;;;;;;;;5022908;28;20052;-37
2021/12/26 04:48:41;;;;;;;48.10;33.92;;;;;;;;;;5023159;28;20026;-33
2021/12/26 04:51:07;;;;;;;42.83;31.15;;;;;;;;;;5023084;28;20029;-33
2021/12/26 04:53:33;;;;;;;43.47;31.95;;;;;;;;;;5023181;28;20029;-34
2021/12/26 04:56:01;;;;;;;41.67;31.85;;;;;;;;;;5038087;28;20029;-36
2021/12/26 04:58:26;;;;;;;43.20;30.98;;;;;;;;;;5022733;28;20042;-30
2021/12/26 05:00:52;;;;;;;39.95;28.77;;;;;;;;;;5022890;28;20851;-29
2021/12/26 05:03:18;;;;;;;41.33;29.17;;;;;;;;;;5023312;28;20045;-28
2021/12/26 05:05:44;;;;;;;38.90;27.10;;;;;;;;;;5021202;28;20041;-31
2021/12/26 05:08:10;;;;;;;38.22;27.75;;;;;;;;;;5022740;28;20045;-32
2021/12/26 05:10:35;;;;;;;39.63;27.92;;;;;;;;;;5022810;28;20029;-35
2021/12/26 05:13:01;;;;;;;39.83;27.23;;;;;;;;;;5023167;28;20026;-33
2021/12/26 05:15:26;;;;;;;38.13;26.85;;;;;;;;;;5023433;28;20467;-32
2021/12/26 05:17:53;;;;;;;37.85;26.05;;;;;;;;;;5022890;28;20112;-32
2021/12/26 05:20:18;;;;;;;36.90;26.15;;;;;;;;;;5022889;28;20029;-33
2021/12/26 05:22:45;;;;;;;38.92;25.70;;;;;;;;;;5022902;28;20032;-37
2021/12/26 05:25:10;;;;;;;35.10;24.83;;;;;;;;;;5022742;28;20040;-33
2021/12/26 05:27:36;;;;;;;35.58;24.92;;;;;;;;;;5026951;28;20021;-35
2021/12/26 05:30:04;;;;;;;31.75;23.63;;;;;;;;;;5026479;28;20029;-31
2021/12/26 05:32:29;;;;;;;33.58;23.95;;;;;;;;;;5026818;28;20037;-32
2021/12/26 05:34:55;;;;;;;32.85;23.25;;;;;;;;;;5026500;28;20021;-35
2021/12/26 05:37:20;;;;;;;31.08;23.05;;;;;;;;;;5026656;28;20029;-31
2021/12/26 05:39:46;;;;;;;31.42;22.45;;;;;;;;;;5026250;28;20495;-32
2021/12/26 05:42:15;;;;;;;31.10;22.73;;;;;;;;;;5026243;28;20033;-31
2021/12/26 05:44:42;;;;;;;30.75;22.15;;;;;;;;;;5026407;28;20069;-31
2021/12/26 05:47:07;;;;;;;28.00;20.80;;;;;;;;;;5026592;28;20025;-34
2021/12/26 05:49:33;;;;;;;29.73;21.65;;;;;;;;;;5026689;28;20087;-32
2021/12/26 05:51:58;;;;;;;31.27;20.75;;;;;;;;;;5026478;28;20273;-32
2021/12/26 05:54:24;;;;;;;26.98;20.27;;;;;;;;;;5026393;28;20487;-32
2021/12/26 05:56:49;;;;;;;26.30;19.77;;;;;;;;;;5034529;28;20116;-30
2021/12/26 05:59:15;;;;;;;28.15;19.55;;;;;;;;;;5046748;28;20155;-34
2021/12/26 06:01:40;;;;;;;27.50;20.60;;;;;;;;;;5045948;28;20391;-33
2021/12/26 06:04:06;;;;;;;26.50;18.50;;;;;;;;;;5046290;28;20040;-33
2021/12/26 06:06:31;;;;;;;23.25;17.63;;;;;;;;;;5045792;28;20029;-31
2021/12/26 06:08:57;;;;;;;25.02;17.50;;;;;;;;;;5045623;28;20053;-29
2021/12/26 06:11:23;;;;;;;24.50;17.48;;;;;;;;;;5045693;28;20040;-31
2021/12/26 06:13:48;;;;;;;24.73;17.80;;;;;;;;;;5028176;28;20804;-32
2021/12/26 06:16:14;;;;;;;25.30;17.55;;;;;;;;;;5026049;28;20068;-33
2021/12/26 06:18:42;;;;;;;21.77;16.73;;;;;;;;;;5026036;28;20083;-32
2021/12/26 06:21:08;;;;;;;22.85;16.58;;;;;;;;;;5025797;28;20025;-32
2021/12/26 06:23:33;;;;;;;21.77;15.32;;;;;;;;;;5025973;28;20032;-29
2021/12/26 06:25:59;;;;;;;22.55;17.08;;;;;;;;;;5025436;28;20529;-35
2021/12/26 06:28:24;;;;;;;22.70;15.88;;;;;;;;;;5026121;28;20025;-31
2021/12/26 06:30:50;;;;;;;21.35;15.13;;;;;;;;;;5025953;28;20531;-36
2021/12/26 06:33:15;;;;;;;20.83;14.63;;;;;;;;;;5025534;28;20025;-35
2021/12/26 06:35:41;;;;;;;20.70;14.60;;;;;;;;;;5024041;28;20033;-33
2021/12/26 06:38:06;;;;;;;20.95;14.48;;;;;;;;;;5025048;28;20480;-32
2021/12/26 06:40:32;;;;;;;20.13;14.35;;;;;;;;;;5024024;28;20037;-35
2021/12/26 06:42:57;;;;;;;20.92;14.38;;;;;;;;;;5025724;28;20045;-35
2021/12/26 06:45:23;;;;;;;17.98;13.48;;;;;;;;;;5025471;28;20521;-32
2021/12/26 06:47:51;;;;;;;19.35;13.82;;;;;;;;;;5025507;28;20030;-31
2021/12/26 06:50:18;;;;;;;18.55;13.38;;;;;;;;;;5025357;28;20421;-29
2021/12/26 06:52:43;;;;;;;18.05;12.38;;;;;;;;;;5025374;28;20087;-33
2021/12/26 06:55:10;;;;;;;17.58;12.13;;;;;;;;;;5025416;28;20037;-32
2021/12/26 06:57:36;;;;;;;20.52;12.35;;;;;;;;;;5025919;28;20596;-34
2021/12/26 07:00:04;;;;;;;15.57;11.77;;;;;;;;;;5025303;28;20113;-31
2021/12/26 07:02:30;;;;;;;16.50;11.50;;;;;;;;;;5025159;28;20025;-30
2021/12/26 07:04:55;;;;;;;16.08;11.60;;;;;;;;;;5025002;28;20033;-33
2021/12/26 07:07:21;;;;;;;16.55;10.98;;;;;;;;;;5025306;28;20570;-32
2021/12/26 07:09:47;;;;;;;15.90;10.93;;;;;;;;;;5025030;28;20035;-32
2021/12/26 07:12:13;;;;;;;15.65;11.48;;;;;;;;;;5025177;28;20030;-32
2021/12/26 07:14:40;;;;;;;16.10;10.88;;;;;;;;;;5024961;28;20037;-35
2021/12/26 07:17:06;;;;;;;16.00;11.40;;;;;;;;;;5024817;28;20056;-31
2021/12/26 07:19:31;;;;;;;14.52;10.45;;;;;;;;;;5025004;28;20034;-29
2021/12/26 07:21:57;;;;;;;14.32;9.90;;;;;;;;;;5024740;28;20029;-29
2021/12/26 07:24:23;;;;;;;14.00;9.98;;;;;;;;;;5024812;28;20067;-33
2021/12/26 07:26:48;;;;;;;12.63;9.43;;;;;;;;;;5024812;28;20030;-33
2021/12/26 07:29:14;;;;;;;12.98;9.55;;;;;;;;;;5024502;28;20135;-33
2021/12/26 07:31:39;;;;;;;12.65;9.13;;;;;;;;;;5024469;28;20036;-31
2021/12/26 07:34:05;;;;;;;12.77;9.65;;;;;;;;;;5024519;28;20033;-30
2021/12/26 07:36:30;;;;;;;12.63;9.00;;;;;;;;;;5024639;28;20033;-30
2021/12/26 07:38:56;;;;;;;12.88;9.18;;;;;;;;;;5024047;28;20039;-30
2021/12/26 07:41:21;;;;;;;11.68;8.60;;;;;;;;;;5024351;28;20037;-32
2021/12/26 07:43:47;;;;;;;13.30;9.02;;;;;;;;;;5024229;28;20029;-35
2021/12/26 07:46:13;;;;;;;11.68;8.35;;;;;;;;;;5024312;28;20042;-31
2021/12/26 07:48:38;;;;;;;12.95;8.30;;;;;;;;;;5023872;28;20420;-33
2021/12/26 07:51:05;;;;;;;12.80;8.82;;;;;;;;;;5023844;28;20037;-32
2021/12/26 07:53:32;;;;;;;12.38;8.95;;;;;;;;;;5024177;28;20029;-38
2021/12/26 07:55:58;;;;;;;10.52;8.18;;;;;;;;;;5026103;28;20033;-29
2021/12/26 07:58:23;;;;;;;10.02;7.65;;;;;;;;;;5043687;28;20031;-33
2021/12/26 08:00:50;;;;;;;11.05;8.05;;;;;;;;;;5044135;28;20033;-30
2021/12/26 08:03:15;;;;;;;11.85;7.75;;;;;;;;;;5044155;28;20408;-38
2021/12/26 08:05:41;;;;;;;10.85;7.97;;;;;;;;;;5042172;28;20040;-35
2021/12/26 08:08:07;;;;;;;11.90;7.80;;;;;;;;;;5043475;28;20139;-36
2021/12/26 08:10:32;;;;;;;12.10;7.78;;;;;;;;;;5043783;28;20045;-31
2021/12/26 08:12:58;;;;;;;11.20;7.57;;;;;;;;;;5043628;28;20345;-35
2021/12/26 08:15:23;;;;;;;8.82;6.88;;;;;;;;;;5043789;28;20039;-33
2021/12/26 08:17:49;;;;;;;8.38;6.50;;;;;;;;;;5043395;28;20112;-35
2021/12/26 08:20:14;;;;;;;9.82;6.97;;;;;;;;;;5043843;28;20060;-32
2021/12/26 08:22:40;;;;;;;9.02;6.85;;;;;;;;;;5042990;28;20776;-32
2021/12/26 08:25:05;;;;;;;8.30;6.10;;;;;;;;;;5043351;28;20025;-30
2021/12/26 08:27:32;;;;;;;8.75;6.20;;;;;;;;;;5043747;28;20031;-30
2021/12/26 08:29:58;;;;;;;8.65;6.53;;;;;;;;;;5043116;28;20545;-36
2021/12/26 08:32:24;;;;;;;8.27;6.15;;;;;;;;;;5043259;28;20033;-35
2021/12/26 08:34:49;;;;;;;8.82;6.40;;;;;;;;;;5043715;28;20051;-38
2021/12/26 08:37:15;;;;;;;8.57;6.35;;;;;;;;;;5043194;28;20411;-34
2021/12/26 08:39:41;;;;;;;8.27;6.15;;;;;;;;;;5043072;28;20127;-32
2021/12/26 08:42:08;;;;;;;8.75;6.28;;;;;;;;;;5043385;28;20087;-34
2021/12/26 08:44:34;;;;;;;8.75;5.90;;;;;;;;;;5043105;28;20663;-31
2021/12/26 08:47:00;;;;;;;8.00;5.70;;;;;;;;;;5043023;28;20041;-35
2021/12/26 08:49:25;;;;;;;7.97;5.50;;;;;;;;;;5043309;28;20029;-33
2021/12/26 08:51:51;;;;;;;7.47;5.40;;;;;;;;;;5042870;28;20411;-34
2021/12/26 08:54:16;;;;;;;8.38;5.60;;;;;;;;;;5042712;28;20090;-31
2021/12/26 08:56:42;;;;;;;7.93;5.75;;;;;;;;;;5033949;28;20039;-35
2021/12/26 08:59:08;;;;;;;10.65;6.00;;;;;;;;;;5023448;28;20030;-35
2021/12/26 09:01:34;;;;;;;6.32;5.15;;;;;;;;;;5023229;28;20026;-31
2021/12/26 09:03:59;;;;;;;7.80;5.55;;;;;;;;;;5021523;28;20038;-34
2021/12/26 09:06:25;;;;;;;7.45;5.10;;;;;;;;;;5023037;28;20411;-30
2021/12/26 09:08:50;;;;;;;6.45;4.88;;;;;;;;;;5022817;28;20053;-31
2021/12/26 09:11:16;;;;;;;7.65;5.43;;;;;;;;;;5021731;28;20029;-36
2021/12/26 09:13:43;;;;;;;7.65;5.53;;;;;;;;;;5022692;28;20671;-34
2021/12/26 09:16:08;;;;;;;7.65;5.97;;;;;;;;;;5023292;28;20057;-32
2021/12/26 09:18:34;;;;;;;7.25;4.90;;;;;;;;;;5022857;28;20398;-38
2021/12/26 09:20:59;;;;;;;5.95;4.82;;;;;;;;;;5031512;28;20056;-30
2021/12/26 09:23:25;;;;;;;7.75;4.90;;;;;;;;;;5042806;28;20550;-31
2021/12/26 09:25:50;;;;;;;6.70;5.20;;;;;;;;;;5042518;28;20040;-36
2021/12/26 09:28:16;;;;;;;7.32;5.22;;;;;;;;;;5043403;28;20057;-35
2021/12/26 09:30:41;;;;;;;6.00;4.88;;;;;;;;;;5042622;28;20021;-35
2021/12/26 09:33:07;;;;;;;7.68;4.65;;;;;;;;;;5042642;28;20107;-31
2021/12/26 09:35:33;;;;;;;7.38;4.75;;;;;;;;;;5042974;28;20032;-29
2021/12/26 09:37:59;;;;;;;6.95;4.85;;;;;;;;;;5042546;28;20025;-31
2021/12/26 09:40:25;;;;;;;7.07;5.03;;;;;;;;;;5042627;28;20131;-35
2021/12/26 09:42:51;;;;;;;7.07;4.90;;;;;;;;;;5042835;28;20198;-30
2021/12/26 09:45:16;;;;;;;5.78;4.30;;;;;;;;;;5042625;28;20101;-32
2021/12/26 09:47:42;;;;;;;5.28;4.03;;;;;;;;;;5042373;28;20522;-31
2021/12/26 09:50:09;;;;;;;5.88;4.05;;;;;;;;;;5042692;28;20112;-32
2021/12/26 09:52:35;;;;;;;6.43;4.75;;;;;;;;;;5042688;28;20037;-32
2021/12/26 09:55:00;;;;;;;5.78;4.10;;;;;;;;;;5042325;28;20112;-36
2021/12/26 09:57:27;;;;;;;7.57;4.13;;;;;;;;;;5026892;28;20041;-34
2021/12/26 09:59:53;;;;;;;5.75;4.07;;;;;;;;;;5022217;28;20087;-33
2021/12/26 10:02:19;;;;;;;4.97;3.85;;;;;;;;;;5022953;28;20025;-32
2021/12/26 10:04:45;;;;;;;5.55;4.00;;;;;;;;;;5022333;28;20704;-34
2021/12/26 10:07:15;;;;;;;6.60;4.45;;;;;;;;;;5022397;28;20047;-35
2021/12/26 10:09:49;;;;;;;5.30;4.00;;;;;;;;;;5022093;28;20025;-36
2021/12/26 10:12:15;;;;;;;5.50;4.22;;;;;;;;;;5022839;28;20060;-33
2021/12/26 10:14:43;;;;;;;5.93;4.30;;;;;;;;;;5025880;28;20042;-32
2021/12/26 10:17:13;;;;;;;5.20;4.00;;;;;;;;;;5026189;28;20526;-35
2021/12/26 10:19:44;;;;;;;5.07;4.07;;;;;;;;;;5026366;28;20029;-32
2021/12/26 10:22:11;;;;;;;5.50;4.22;;;;;;;;;;5026111;28;20040;-35
2021/12/26 10:24:41;;;;;;;6.18;4.10;;;;;;;;;;5025797;28;20033;-30
2021/12/26 10:27:10;;;;;;;6.25;4.47;;;;;;;;;;5025790;28;20030;-34
2021/12/26 10:29:42;;;;;;;5.95;4.22;;;;;;;;;;5025816;28;20033;-32
2021/12/26 10:32:16;;;;;;;5.20;4.05;;;;;;;;;;5025782;28;20025;-30
2021/12/26 10:34:45;;;;;;;5.82;3.72;;;;;;;;;;5025522;28;20033;-32
2021/12/26 10:37:22;;;;;;;6.35;4.10;;;;;;;;;;5025766;28;20025;-31
2021/12/26 10:39:48;;;;;;;5.35;4.15;;;;;;;;;;5025509;28;20116;-34
2021/12/26 10:42:19;;;;;;;5.35;3.70;;;;;;;;;;5025818;28;20025;-35
2021/12/26 10:44:53;;;;;;;5.00;3.80;;;;;;;;;;5025294;28;20025;-33
2021/12/26 10:47:21;;;;;;;4.35;3.60;;;;;;;;;;5025099;28;20104;-35
2021/12/26 10:49:51;;;;;;;6.07;4.05;;;;;;;;;;5025146;28;20033;-36
2021/12/26 10:52:19;;;;;;;4.55;3.38;;;;;;;;;;5025751;28;20033;-33
2021/12/26 10:54:49;;;;;;;5.35;3.65;;;;;;;;;;5025212;28;20034;-35
2021/12/26 10:57:20;;;;;;;6.65;4.50;;;;;;;;;;5025749;28;20030;-29
2021/12/26 10:59:47;;;;;;;5.53;3.95;;;;;;;;;;5025091;28;20039;-31
2021/12/26 11:02:28;;;;;;;5.65;3.80;;;;;;;;;;5025529;28;20037;-37
2021/12/26 11:05:05;;;;;;;4.38;3.40;;;;;;;;;;5025370;28;20041;-33
2021/12/26 11:07:39;;;;;;;5.15;3.60;;;;;;;;;;5025198;28;20046;-34
2021/12/26 11:10:07;;;;;;;4.43;3.47;;;;;;;;;;5025113;28;20032;-29
2021/12/26 11:12:42;;;;;;;5.43;3.60;;;;;;;;;;5025008;28;20094;-36
2021/12/26 11:15:08;;;;;;;5.15;3.83;;;;;;;;;;5025191;28;20033;-38
2021/12/26 11:17:54;;;;;;;4.68;3.60;;;;;;;;;;5025284;28;20033;-38
2021/12/26 11:20:25;;;;;;;5.47;3.67;;;;;;;;;;5025030;28;20961;-35
2021/12/26 11:22:51;;;;;;;4.63;3.42;;;;;;;;;;5024562;28;20392;-33
2021/12/26 11:25:16;;;;;;;5.13;3.80;;;;;;;;;;5024898;28;20040;-39
2021/12/26 11:27:42;;;;;;;5.47;4.45;;;;;;;;;;5024753;28;20211;-33
2021/12/26 11:30:09;;;;;;;5.35;4.05;;;;;;;;;;5024882;28;20516;-33
2021/12/26 11:32:34;;;;;;;6.18;4.70;;;;;;;;;;5024823;28;20589;-29
2021/12/26 11:35:00;;;;;;;5.15;4.30;;;;;;;;;;5024840;28;20029;-32
2021/12/26 11:37:26;;;;;;;4.72;3.97;;;;;;;;;;5024523;28;20029;-37
2021/12/26 11:39:51;;;;;;;5.43;4.25;;;;;;;;;;5006699;28;20109;-37
2021/12/26 11:42:48;;;;;;;5.38;4.25;;;;;;;;;;5024352;28;20033;-37
2021/12/26 11:45:20;;;;;;;5.97;4.43;;;;;;;;;;5044163;28;20553;-33
2021/12/26 11:48:19;;;;;;;5.30;4.43;;;;;;;;;;5044083;28;20043;-32
2021/12/26 11:50:52;;;;;;;6.10;4.68;;;;;;;;;;5043102;28;20106;-33
2021/12/26 11:53:32;;;;;;;5.20;4.70;;;;;;;;;;5042565;28;20036;-33
2021/12/26 11:56:22;;;;;;;6.05;4.28;;;;;;;;;;5039876;28;20056;-34
2021/12/26 11:58:57;;;;;;;5.57;4.63;;;;;;;;;;5024003;28;20041;-32
2021/12/26 12:01:22;;;;;;;5.65;4.50;;;;;;;;;;5024155;28;20040;-38
2021/12/26 12:03:49;;;;;;;5.40;4.22;;;;;;;;;;5022639;28;20416;-32
2021/12/26 12:06:25;;;;;;;6.22;4.35;;;;;;;;;;5024153;28;20802;-30
2021/12/26 12:08:50;;;;;;;5.13;4.07;;;;;;;;;;5023645;28;20084;-32
2021/12/26 12:11:16;;;;;;;5.05;4.20;;;;;;;;;;5022846;28;20053;-34
2021/12/26 12:13:53;;;;;;;4.75;4.18;;;;;;;;;;5023949;28;20040;-31
2021/12/26 12:16:24;;;;;;;7.55;4.75;;;;;;;;;;5023985;28;20503;-35
2021/12/26 12:18:50;;;;;;;5.85;4.50;;;;;;;;;;5023986;28;20030;-30
2021/12/26 12:21:18;;;;;;;6.50;4.57;;;;;;;;;;5023981;28;20094;-34
2021/12/26 12:24:06;;;;;;;5.07;4.07;;;;;;;;;;5023592;28;20419;-35
2021/12/26 12:27:00;;;;;;;5.35;4.30;;;;;;;;;;5023741;28;20033;-36
2021/12/26 12:29:29;;;;;;;4.97;4.35;;;;;;;;;;5023866;28;20088;-31
2021/12/26 12:32:07;;;;;;;5.72;4.40;;;;;;;;;;5023639;28;20550;-33
2021/12/26 12:34:45;;;;;;;5.18;4.45;;;;;;;;;;5023924;28;20414;-32
2021/12/26 12:37:11;;;;;;;5.07;4.10;;;;;;;;;;5023511;28;20119;-31
2021/12/26 12:39:36;;;;;;;6.65;4.97;;;;;;;;;;5022060;28;20610;-32
2021/12/26 12:42:02;;;;;;;5.78;4.47;;;;;;;;;;5022002;28;20592;-30
2021/12/26 12:44:35;;;;;;;5.38;4.10;;;;;;;;;;5023579;28;20041;-34
2021/12/26 12:47:06;;;;;;;5.45;4.38;;;;;;;;;;5023331;28;20079;-31
2021/12/26 12:49:51;;;;;;;4.68;4.00;;;;;;;;;;5023583;28;20036;-34
2021/12/26 12:52:39;;;;;;;5.57;4.28;;;;;;;;;;5035021;28;20021;-33
2021/12/26 12:55:06;;;;;;;5.60;4.30;;;;;;;;;;5043362;28;20028;-30
2021/12/26 12:57:43;;;;;;;4.45;3.83;;;;;;;;;;5026278;28;20056;-31
2021/12/26 13:00:24;;;;;;;6.60;4.53;;;;;;;;;;5023429;28;20033;-31
2021/12/26 13:02:50;;;;;;;5.13;4.13;;;;;;;;;;5023205;28;20095;-33
2021/12/26 13:05:29;;;;;;;5.88;4.68;;;;;;;;;;5023302;28;20033;-32
2021/12/26 13:08:01;;;;;;;5.28;4.22;;;;;;;;;;5023062;28;20680;-35
2021/12/26 13:10:27;;;;;;;5.28;4.15;;;;;;;;;;5023529;28;20029;-32
2021/12/26 13:12:52;;;;;;;3.95;3.53;;;;;;;;;;5023715;28;20037;-33
2021/12/26 13:15:18;;;;;;;5.25;4.05;;;;;;;;;;5022069;28;20060;-30
2021/12/26 13:17:44;;;;;;;5.63;4.38;;;;;;;;;;5021796;28;20025;-34
2021/12/26 13:20:17;;;;;;;5.63;4.32;;;;;;;;;;5023475;28;20038;-35
2021/12/26 13:22:47;;;;;;;4.55;3.70;;;;;;;;;;5023593;28;20029;-35
2021/12/26 13:25:24;;;;;;;4.93;4.05;;;;;;;;;;5023704;28;20048;-31
2021/12/26 13:27:50;;;;;;;5.28;4.25;;;;;;;;;;5023474;28;20034;-29
2021/12/26 13:30:15;;;;;;;5.45;4.07;;;;;;;;;;5023269;28;20034;-34
2021/12/26 13:32:41;;;;;;;4.53;3.78;;;;;;;;;;5023749;28;20068;-31
2021/12/26 13:35:07;;;;;;;5.15;4.25;;;;;;;;;;5023303;28;20412;-30
2021/12/26 13:37:33;;;;;;;5.95;4.45;;;;;;;;;;5023384;28;20529;-28
2021/12/26 13:39:59;;;;;;;4.68;3.85;;;;;;;;;;5023485;28;20325;-29
2021/12/26 13:42:25;;;;;;;5.72;4.13;;;;;;;;;;5028606;28;20044;-33
2021/12/26 13:44:51;;;;;;;5.45;3.95;;;;;;;;;;5042797;28;20491;-35
2021/12/26 13:47:16;;;;;;;5.05;4.15;;;;;;;;;;5043953;28;20044;-32
2021/12/26 13:49:42;;;;;;;5.20;3.97;;;;;;;;;;5047002;28;20411;-30
2021/12/26 13:52:07;;;;;;;5.55;4.05;;;;;;;;;;5047078;28;20112;-32
2021/12/26 13:54:48;;;;;;;6.25;4.82;;;;;;;;;;5046842;28;20041;-31
2021/12/26 13:57:16;;;;;;;4.15;3.28;;;;;;;;;;5014891;28;20037;-38
2021/12/26 13:59:48;;;;;;;4.47;3.72;;;;;;;;;;5026343;28;20036;-31
2021/12/26 14:02:23;;;;;;;6.13;4.13;;;;;;;;;;5027054;28;20025;-31
2021/12/26 14:04:56;;;;;;;5.22;4.40;;;;;;;;;;5026473;28;20148;-32
2021/12/26 14:07:26;;;;;;;5.18;4.03;;;;;;;;;;5026419;28;20049;-36
2021/12/26 14:09:56;;;;;;;5.07;4.20;;;;;;;;;;5025945;28;20025;-30
2021/12/26 14:12:44;;;;;;;4.82;4.10;;;;;;;;;;5043646;28;20385;-35
2021/12/26 14:15:37;;;;;;;5.63;3.65;;;;;;;;;;5046351;28;20111;-34
2021/12/26 14:18:18;;;;;;;6.72;3.80;;;;;;;;;;5046306;28;20029;-31
2021/12/26 14:20:50;;;;;;;4.55;3.83;;;;;;;;;;5045904;28;20025;-32
2021/12/26 14:23:23;;;;;;;5.28;3.80;;;;;;;;;;5046215;28;20025;-35
2021/12/26 14:25:50;;;;;;;4.50;4.07;;;;;;;;;;5027514;28;20025;-34
2021/12/26 14:28:17;;;;;;;4.85;3.97;;;;;;;;;;5026155;28;20037;-33
2021/12/26 14:30:44;;;;;;;5.32;3.58;;;;;;;;;;5026064;28;20067;-30
2021/12/26 14:33:10;;;;;;;5.05;4.05;;;;;;;;;;5024647;28;20036;-34
2021/12/26 14:35:36;;;;;;;5.80;4.28;;;;;;;;;;5026077;28;20021;-34
2021/12/26 14:38:15;;;;;;;4.70;3.80;;;;;;;;;;5025879;28;20100;-34
2021/12/26 14:40:54;;;;;;;5.32;4.18;;;;;;;;;;5025912;28;20033;-32
2021/12/26 14:43:20;;;;;;;5.22;3.88;;;;;;;;;;5025729;28;20025;-33